createdAt,value
2022-09-12T00:00:51.501Z,2.53
2022-09-12T00:03:18.288Z,2.70
2022-09-12T00:05:45.779Z,2.33
2022-09-12T00:08:13.005Z,2.63
2022-09-12T00:10:44.036Z,2.22
2022-09-12T00:13:11.165Z,2.65
2022-09-12T00:15:38.846Z,2.75
2022-09-12T00:18:05.453Z,2.42
2022-09-12T00:20:32.143Z,2.42
2022-09-12T00:22:58.697Z,2.50
2022-09-12T00:25:25.537Z,2.33
2022-09-12T00:27:52.039Z,2.20
2022-09-12T00:30:18.744Z,2.58
2022-09-12T00:32:45.332Z,2.28
2022-09-12T00:35:12.093Z,2.40
2022-09-12T00:37:38.802Z,2.30
2022-09-12T00:40:05.657Z,2.33
2022-09-12T00:42:32.174Z,2.45
2022-09-12T00:44:58.862Z,2.38
2022-09-12T00:47:28.609Z,2.45
2022-09-12T00:50:15.585Z,2.17
2022-09-12T00:52:45.132Z,2.22
2022-09-12T00:55:21.082Z,2.45
2022-09-12T00:57:53.158Z,2.40
2022-09-12T01:00:21.379Z,2.13
2022-09-12T01:02:50.856Z,2.53
2022-09-12T01:05:18.181Z,2.30
2022-09-12T01:07:48.463Z,2.63
2022-09-12T01:10:15.294Z,2.55
2022-09-12T01:12:43.400Z,2.20
2022-09-12T01:15:10.104Z,2.40
2022-09-12T01:17:41.750Z,2.40
2022-09-12T01:20:20.676Z,2.53
2022-09-12T01:22:47.255Z,2.67
2022-09-12T01:25:14.610Z,2.38
2022-09-12T01:27:41.234Z,2.28
2022-09-12T01:30:13.662Z,2.65
2022-09-12T01:32:51.023Z,2.77
2022-09-12T01:35:23.799Z,2.30
2022-09-12T01:37:55.072Z,2.33
2022-09-12T01:40:28.149Z,2.35
2022-09-12T01:43:17.242Z,2.08
2022-09-12T01:45:45.487Z,2.17
2022-09-12T01:48:26.602Z,2.15
2022-09-12T01:50:57.147Z,2.03
2022-09-12T01:53:26.330Z,2.10
2022-09-12T01:56:22.477Z,2.53
2022-09-12T01:58:56.209Z,2.17
2022-09-12T02:01:33.491Z,2.63
2022-09-12T02:04:03.415Z,2.03
2022-09-12T02:06:33.098Z,2.00
2022-09-12T02:09:04.148Z,2.03
2022-09-12T02:11:33.274Z,2.30
2022-09-12T02:14:06.578Z,2.15
2022-09-12T02:16:59.198Z,2.60
2022-09-12T02:19:29.319Z,2.47
2022-09-12T02:21:58.136Z,2.33
2022-09-12T02:24:27.925Z,2.30
2022-09-12T02:26:55.955Z,2.13
2022-09-12T02:29:22.466Z,2.38
2022-09-12T02:31:58.211Z,1.92
2022-09-12T02:34:39.239Z,2.13
2022-09-12T02:37:05.987Z,2.00
2022-09-12T02:39:32.828Z,2.35
2022-09-12T02:42:01.072Z,2.28
2022-09-12T02:44:32.119Z,2.28
2022-09-12T02:47:14.463Z,2.50
2022-09-12T02:49:40.993Z,2.45
2022-09-12T02:52:07.612Z,2.58
2022-09-12T02:54:34.543Z,2.08
2022-09-12T02:57:01.092Z,2.20
2022-09-12T02:59:28.025Z,2.05
2022-09-12T03:02:03.356Z,2.17
2022-09-12T03:04:30.221Z,2.30
2022-09-12T03:07:09.015Z,1.90
2022-09-12T03:10:02.805Z,2.20
2022-09-12T03:12:55.893Z,2.00
2022-09-12T03:15:34.540Z,2.22
2022-09-12T03:18:03.975Z,2.08
2022-09-12T03:20:38.108Z,2.00
2022-09-12T03:23:10.623Z,2.42
2022-09-12T03:25:57.540Z,2.50
2022-09-12T03:28:24.236Z,2.30
2022-09-12T03:30:56.602Z,2.10
2022-09-12T03:33:24.044Z,2.50
2022-09-12T03:35:51.232Z,2.47
2022-09-12T03:38:18.084Z,1.98
2022-09-12T03:40:44.848Z,2.28
2022-09-12T03:43:11.427Z,2.33
2022-09-12T03:45:38.083Z,2.40
2022-09-12T03:48:06.196Z,2.17
2022-09-12T03:50:32.840Z,2.35
2022-09-12T03:53:00.178Z,2.25
2022-09-12T03:55:26.802Z,2.30
2022-09-12T03:57:56.729Z,2.13
2022-09-12T04:00:23.407Z,2.10
2022-09-12T04:02:53.311Z,2.10
2022-09-12T04:05:19.804Z,2.00
2022-09-12T04:07:49.282Z,2.08
2022-09-12T04:10:16.444Z,2.20
2022-09-12T04:12:43.292Z,2.03
2022-09-12T04:15:09.853Z,2.22
2022-09-12T04:17:36.382Z,2.40
2022-09-12T04:20:03.390Z,2.22
2022-09-12T04:22:31.961Z,2.30
2022-09-12T04:24:58.466Z,1.75
2022-09-12T04:27:25.152Z,2.30
2022-09-12T04:29:51.820Z,2.30
2022-09-12T04:32:18.899Z,2.33
2022-09-12T04:34:47.042Z,2.10
2022-09-12T04:37:13.624Z,2.30
2022-09-12T04:39:41.335Z,2.00
2022-09-12T04:42:07.951Z,1.92
2022-09-12T04:44:34.621Z,2.30
2022-09-12T04:47:01.195Z,2.15
2022-09-12T04:49:27.722Z,2.50
2022-09-12T04:51:55.129Z,2.55
2022-09-12T04:54:21.831Z,1.90
2022-09-12T04:56:49.141Z,2.22
2022-09-12T04:59:16.533Z,1.98
2022-09-12T05:01:43.383Z,2.15
2022-09-12T05:04:10.903Z,2.30
2022-09-12T05:06:38.328Z,2.63
2022-09-12T05:09:05.883Z,2.05
2022-09-12T05:12:00.131Z,2.10
2022-09-12T05:14:23.383Z,2.35
2022-09-12T05:16:50.144Z,2.28
2022-09-12T05:19:16.776Z,2.10
2022-09-12T05:21:43.337Z,2.30
2022-09-12T05:24:10.495Z,1.85
2022-09-12T05:26:36.983Z,2.17
2022-09-12T05:29:04.084Z,2.03
2022-09-12T05:31:30.731Z,2.17
2022-09-12T05:33:57.775Z,2.38
2022-09-12T05:36:26.053Z,2.22
2022-09-12T05:38:53.080Z,2.35
2022-09-12T05:41:24.657Z,2.40
2022-09-12T05:43:55.723Z,2.63
2022-09-12T05:46:23.753Z,2.55
2022-09-12T05:48:55.058Z,3.20
2022-09-12T05:51:25.548Z,3.28
2022-09-12T05:53:58.762Z,3.20
2022-09-12T05:56:26.447Z,3.40
2022-09-12T05:58:57.153Z,3.70
2022-09-12T06:01:24.273Z,3.45
2022-09-12T06:03:52.302Z,4.03
2022-09-12T06:06:20.156Z,3.80
2022-09-12T06:08:48.170Z,3.75
2022-09-12T06:11:16.015Z,3.42
2022-09-12T06:13:43.242Z,3.70
2022-09-12T06:16:11.049Z,2.88
2022-09-12T06:18:38.686Z,2.97
2022-09-12T06:21:06.366Z,3.33
2022-09-12T06:23:34.024Z,2.92
2022-09-12T06:26:00.736Z,3.08
2022-09-12T06:28:27.474Z,2.80
2022-09-12T06:30:54.177Z,2.55
2022-09-12T06:33:20.874Z,2.75
2022-09-12T06:35:47.464Z,3.03
2022-09-12T06:38:14.083Z,2.90
2022-09-12T06:40:47.223Z,3.17
2022-09-12T06:43:14.039Z,2.80
2022-09-12T06:45:48.351Z,3.10
2022-09-12T06:48:15.031Z,3.15
2022-09-12T06:50:42.030Z,4.18
2022-09-12T06:53:08.563Z,4.72
2022-09-12T06:55:35.141Z,5.00
2022-09-12T06:58:01.672Z,5.25
2022-09-12T07:00:28.249Z,5.43
2022-09-12T07:02:56.543Z,5.72
2022-09-12T07:05:23.103Z,5.63
2022-09-12T07:07:49.805Z,4.75
2022-09-12T07:10:21.632Z,5.30
2022-09-12T07:12:48.825Z,5.80
2022-09-12T07:15:16.422Z,5.65
2022-09-12T07:17:43.093Z,5.15
2022-09-12T07:20:09.853Z,5.80
2022-09-12T07:22:36.412Z,4.82
2022-09-12T07:25:03.299Z,5.80
2022-09-12T07:27:29.811Z,5.60
2022-09-12T07:29:56.565Z,4.78
2022-09-12T07:32:23.337Z,5.80
2022-09-12T07:34:50.362Z,5.78
2022-09-12T07:37:16.867Z,6.90
2022-09-12T07:39:43.698Z,6.22
2022-09-12T07:42:11.498Z,8.30
2022-09-12T07:44:38.262Z,6.75
2022-09-12T07:47:04.855Z,8.40
2022-09-12T07:49:31.734Z,7.50
2022-09-12T07:51:58.336Z,7.43
2022-09-12T07:54:25.136Z,8.70
2022-09-12T07:56:51.830Z,8.13
2022-09-12T07:59:35.329Z,7.30
2022-09-12T08:02:04.968Z,7.03
2022-09-12T08:09:23.687Z,5.40
2022-09-12T08:11:50.380Z,5.65
2022-09-12T08:14:17.778Z,5.53
2022-09-12T08:16:44.751Z,4.90
2022-09-12T08:19:12.053Z,4.28
2022-09-12T08:21:38.726Z,4.18
2022-09-12T08:24:06.162Z,3.50
2022-09-12T08:26:33.564Z,3.72
2022-09-12T08:29:00.446Z,3.20
2022-09-12T08:31:27.434Z,3.90
2022-09-12T08:33:57.467Z,3.90
2022-09-12T08:36:25.212Z,3.67
2022-09-12T08:38:59.217Z,4.13
2022-09-12T08:41:35.357Z,3.88
2022-09-12T08:44:16.421Z,2.97
2022-09-12T08:46:45.802Z,3.10
2022-09-12T08:49:14.820Z,3.35
2022-09-12T08:51:41.864Z,3.08
2022-09-12T08:54:19.358Z,3.35
2022-09-12T08:56:46.750Z,3.65
2022-09-12T08:59:16.434Z,3.00
2022-09-12T09:01:44.470Z,3.00
2022-09-12T09:04:29.143Z,3.20
2022-09-12T09:06:59.298Z,2.90
2022-09-12T09:09:31.583Z,2.85
2022-09-12T09:12:03.421Z,2.83
2022-09-12T09:14:47.951Z,2.88
2022-09-12T09:17:20.505Z,3.20
2022-09-12T09:19:53.748Z,2.83
2022-09-12T09:22:27.582Z,3.27
2022-09-12T09:24:59.624Z,2.80
2022-09-12T09:27:41.167Z,2.40
2022-09-12T09:30:15.929Z,2.50
2022-09-12T09:32:44.013Z,2.88
2022-09-12T09:35:32.154Z,2.83
2022-09-12T09:38:06.134Z,2.80
2022-09-12T09:40:40.529Z,4.10
2022-09-12T09:43:24.202Z,3.47
2022-09-12T09:45:52.095Z,3.03
2022-09-12T09:48:20.880Z,3.50
2022-09-12T09:50:49.091Z,2.72
2022-09-12T09:53:38.761Z,3.15
2022-09-12T09:56:09.832Z,2.90
2022-09-12T09:58:36.729Z,3.40
2022-09-12T10:01:04.906Z,2.88
2022-09-12T10:03:33.368Z,3.05
2022-09-12T10:06:07.034Z,3.50
2022-09-12T10:08:37.648Z,3.35
2022-09-12T10:11:06.110Z,3.05
2022-09-12T10:13:38.578Z,3.40
2022-09-12T10:16:08.523Z,3.17
2022-09-12T10:18:39.870Z,3.22
2022-09-12T10:21:35.915Z,2.83
2022-09-12T10:24:14.608Z,3.38
2022-09-12T10:26:43.723Z,2.75
2022-09-12T10:29:15.194Z,3.10
2022-09-12T10:31:47.386Z,3.08
2022-09-12T10:34:26.057Z,3.08
2022-09-12T10:36:54.361Z,3.17
2022-09-12T10:39:20.968Z,2.78
2022-09-12T10:41:47.516Z,3.25
2022-09-12T10:44:16.057Z,2.70
2022-09-12T10:46:42.621Z,2.65
2022-09-12T10:49:29.379Z,2.80
2022-09-12T10:51:56.969Z,3.00
2022-09-12T10:54:25.212Z,2.92
2022-09-12T10:57:10.930Z,2.60
2022-09-12T10:59:46.456Z,3.35
2022-09-12T11:02:16.857Z,3.22
2022-09-12T11:04:46.388Z,2.80
2022-09-12T11:07:12.865Z,3.03
2022-09-12T11:10:12.853Z,3.00
2022-09-12T11:12:43.532Z,2.58
2022-09-12T11:15:12.938Z,3.00
2022-09-12T11:17:58.205Z,3.20
2022-09-12T11:20:37.178Z,2.70
2022-09-12T11:23:04.322Z,2.58
2022-09-12T11:25:51.304Z,2.67
2022-09-12T11:28:26.841Z,2.58
2022-09-12T11:31:11.756Z,2.78
2022-09-12T11:33:45.920Z,2.83
2022-09-12T11:36:21.754Z,2.63
2022-09-12T11:39:02.024Z,2.88
2022-09-12T11:41:34.702Z,2.40
2022-09-12T11:44:04.248Z,2.38
2022-09-12T11:46:40.646Z,2.58
2022-09-12T11:49:12.405Z,2.15
2022-09-12T11:51:52.969Z,2.00
2022-09-12T11:54:32.665Z,1.70
2022-09-12T11:57:08.729Z,1.75
2022-09-12T11:59:40.403Z,1.98
2022-09-12T12:02:12.157Z,1.60
2022-09-12T12:04:41.481Z,1.90
2022-09-12T12:07:10.566Z,2.08
2022-09-12T12:09:51.142Z,2.13
2022-09-12T12:12:21.047Z,2.17
2022-09-12T12:14:50.221Z,1.67
2022-09-12T12:17:18.851Z,1.77
2022-09-12T12:19:46.164Z,2.10
2022-09-12T12:22:16.591Z,1.40
2022-09-12T12:25:02.609Z,1.70
2022-09-12T12:27:44.191Z,2.03
2022-09-12T12:30:29.133Z,1.60
2022-09-12T12:33:10.878Z,1.75
2022-09-12T12:35:39.953Z,2.00
2022-09-12T12:38:26.340Z,1.98
2022-09-12T12:40:53.135Z,2.00
2022-09-12T12:43:31.996Z,1.60
2022-09-12T12:46:01.078Z,1.80
2022-09-12T12:48:29.606Z,2.17
2022-09-12T12:51:15.292Z,1.80
2022-09-12T12:53:41.973Z,1.73
2022-09-12T12:56:25.432Z,1.70
2022-09-12T12:58:57.733Z,1.60
2022-09-12T13:01:24.493Z,1.90
2022-09-12T13:03:54.011Z,1.73
2022-09-12T13:06:40.997Z,1.83
2022-09-12T13:09:22.086Z,1.73
2022-09-12T13:11:55.732Z,1.50
2022-09-12T13:14:48.135Z,1.98
2022-09-12T13:17:35.624Z,1.50
2022-09-12T13:20:26.698Z,1.70
2022-09-12T13:22:53.150Z,1.75
2022-09-12T13:25:22.444Z,1.60
2022-09-12T13:27:57.833Z,1.95
2022-09-12T13:30:24.428Z,1.42
2022-09-12T13:32:51.147Z,1.70
2022-09-12T13:35:26.410Z,1.83
2022-09-12T13:37:55.955Z,1.52
2022-09-12T13:40:25.279Z,1.67
2022-09-12T13:43:12.354Z,1.60
2022-09-12T13:45:41.740Z,1.52
2022-09-12T13:48:11.796Z,1.65
2022-09-12T13:50:43.162Z,1.80
2022-09-12T13:53:14.264Z,1.70
2022-09-12T13:55:42.413Z,2.03
2022-09-12T13:58:21.147Z,1.73
2022-09-12T14:00:59.732Z,1.98
2022-09-12T14:03:55.735Z,1.63
2022-09-12T14:06:27.775Z,1.60
2022-09-12T14:09:01.384Z,1.90
2022-09-12T14:11:29.420Z,2.10
2022-09-12T14:13:57.145Z,1.75
2022-09-12T14:16:27.372Z,1.98
2022-09-12T14:18:54.577Z,1.90
2022-09-12T14:21:34.209Z,2.08
2022-09-12T14:24:01.438Z,2.00
2022-09-12T14:26:32.517Z,1.80
2022-09-12T14:28:59.404Z,1.58
2022-09-12T14:31:32.986Z,1.70
2022-09-12T14:34:15.586Z,2.20
2022-09-12T14:36:50.082Z,1.92
2022-09-12T14:39:25.440Z,1.83
2022-09-12T14:42:00.326Z,1.83
2022-09-12T14:44:27.875Z,1.75
2022-09-12T14:46:54.498Z,1.90
2022-09-12T14:49:36.898Z,1.75
2022-09-12T14:52:07.993Z,1.80
2022-09-12T14:54:37.252Z,2.05
2022-09-12T14:57:06.447Z,1.75
2022-09-12T14:59:37.852Z,2.00
2022-09-12T15:02:13.445Z,1.70
2022-09-12T15:04:41.061Z,1.77
2022-09-12T15:07:26.011Z,1.98
2022-09-12T15:09:53.110Z,1.80
2022-09-12T15:12:19.695Z,1.65
2022-09-12T15:14:46.376Z,1.98
2022-09-12T15:17:12.865Z,1.67
2022-09-12T15:19:39.400Z,1.60
2022-09-12T15:22:06.029Z,1.98
2022-09-12T15:24:32.689Z,2.75
2022-09-12T15:26:59.213Z,1.50
2022-09-12T15:29:25.773Z,2.25
2022-09-12T15:31:52.305Z,1.92
2022-09-12T15:34:20.745Z,2.03
2022-09-12T15:36:47.439Z,2.00
2022-09-12T15:39:14.567Z,1.77
2022-09-12T15:41:41.384Z,1.92
2022-09-12T15:44:10.925Z,1.77
2022-09-12T15:46:40.089Z,1.63
2022-09-12T15:49:07.320Z,1.80
2022-09-12T15:51:34.242Z,1.90
2022-09-12T15:54:04.262Z,1.80
2022-09-12T15:56:30.917Z,2.33
2022-09-12T15:58:59.815Z,1.70
2022-09-12T16:01:27.476Z,1.95
2022-09-12T16:03:54.229Z,1.65
2022-09-12T16:06:20.997Z,1.60
2022-09-12T16:08:47.608Z,1.70
2022-09-12T16:11:18.773Z,1.60
2022-09-12T16:13:45.449Z,1.90
2022-09-12T16:16:11.999Z,1.90
2022-09-12T16:18:41.441Z,1.70
2022-09-12T16:21:15.012Z,1.58
2022-09-12T16:23:45.327Z,1.38
2022-09-12T16:26:11.912Z,1.42
2022-09-12T16:28:38.964Z,1.40
2022-09-12T16:31:07.033Z,1.52
2022-09-12T16:33:33.871Z,1.25
2022-09-12T16:36:09.528Z,1.45
2022-09-12T16:39:02.315Z,1.67
2022-09-12T16:41:29.224Z,1.52
2022-09-12T16:43:55.898Z,1.17
2022-09-12T16:46:24.385Z,1.35
2022-09-12T16:48:54.494Z,1.45
2022-09-12T16:51:24.841Z,1.02
2022-09-12T16:53:51.817Z,1.00
2022-09-12T16:56:18.560Z,1.40
2022-09-12T16:58:45.811Z,1.30
2022-09-12T17:01:14.756Z,1.00
2022-09-12T17:03:44.200Z,1.00
2022-09-12T17:06:15.036Z,1.25
2022-09-12T17:08:42.875Z,1.38
2022-09-12T17:11:14.062Z,1.13
2022-09-12T17:14:03.158Z,1.50
2022-09-12T17:16:27.761Z,1.17
2022-09-12T17:18:54.867Z,1.23
2022-09-12T17:21:21.775Z,1.15
2022-09-12T17:23:48.863Z,1.40
2022-09-12T17:26:16.087Z,1.35
2022-09-12T17:28:43.088Z,1.20
2022-09-12T17:31:13.093Z,1.17
2022-09-12T17:33:40.523Z,1.23
2022-09-12T17:36:09.218Z,1.52
2022-09-12T17:38:36.562Z,1.35
2022-09-12T17:41:22.186Z,1.30
2022-09-12T17:43:50.807Z,1.17
2022-09-12T17:46:18.531Z,1.92
2022-09-12T17:48:45.439Z,1.30
2022-09-12T17:51:14.743Z,1.17
2022-09-12T17:53:44.742Z,1.10
2022-09-12T17:56:16.047Z,1.75
2022-09-12T17:58:43.387Z,1.20
2022-09-12T18:01:31.156Z,1.33
2022-09-12T18:04:03.018Z,1.75
2022-09-12T18:06:32.947Z,1.73
2022-09-12T18:09:04.917Z,1.80
2022-09-12T18:11:32.808Z,1.40
2022-09-12T18:14:00.151Z,1.40
2022-09-12T18:16:28.507Z,1.55
2022-09-12T18:19:01.300Z,1.42
2022-09-12T18:21:29.234Z,1.50
2022-09-12T18:23:58.990Z,1.40
2022-09-12T18:26:33.623Z,1.35
2022-09-12T18:29:00.555Z,1.52
2022-09-12T18:31:29.092Z,1.45
2022-09-12T18:33:56.509Z,1.75
2022-09-12T18:36:23.817Z,1.63
2022-09-12T18:38:51.024Z,2.55
2022-09-12T18:41:20.941Z,1.70
2022-09-12T18:43:48.892Z,1.75
2022-09-12T18:46:17.421Z,1.48
2022-09-12T18:48:45.672Z,2.22
2022-09-12T18:51:17.985Z,1.77
2022-09-12T18:53:53.568Z,1.50
2022-09-12T18:56:21.163Z,1.60
2022-09-12T18:58:52.336Z,1.52
2022-09-12T19:01:31.509Z,1.80
2022-09-12T19:04:01.003Z,1.85
2022-09-12T19:06:32.252Z,2.13
2022-09-12T19:09:07.362Z,2.13
2022-09-12T19:11:35.920Z,2.15
2022-09-12T19:14:03.177Z,1.80
2022-09-12T19:16:30.898Z,2.17
2022-09-12T19:18:59.015Z,2.00
2022-09-12T19:21:28.013Z,2.10
2022-09-12T19:23:58.068Z,2.53
2022-09-12T19:26:26.491Z,2.40
2022-09-12T19:28:54.341Z,2.22
2022-09-12T19:31:23.288Z,2.38
2022-09-12T19:33:50.725Z,2.50
2022-09-12T19:36:41.265Z,1.88
2022-09-12T19:39:12.369Z,2.15
2022-09-12T19:41:39.595Z,2.03
2022-09-12T19:44:08.675Z,2.28
2022-09-12T19:46:35.929Z,2.20
2022-09-12T19:49:03.681Z,2.70
2022-09-12T19:51:32.894Z,2.33
2022-09-12T19:54:00.366Z,2.40
2022-09-12T19:56:28.199Z,2.40
2022-09-12T19:58:56.571Z,2.33
2022-09-12T20:01:25.581Z,2.20
2022-09-12T20:03:53.912Z,2.60
2022-09-12T20:06:21.299Z,2.45
2022-09-12T20:08:49.668Z,2.45
2022-09-12T20:11:19.141Z,2.30
2022-09-12T20:13:46.891Z,2.17
2022-09-12T20:16:20.584Z,2.17
2022-09-12T20:21:18.201Z,2.80
2022-09-12T20:23:46.138Z,2.58
2022-09-12T20:26:13.776Z,2.47
2022-09-12T20:28:41.435Z,2.15
2022-09-12T20:31:10.901Z,2.35
2022-09-12T20:33:38.567Z,2.40
2022-09-12T20:36:07.659Z,2.10
2022-09-12T20:38:35.400Z,2.65
2022-09-12T20:41:04.942Z,2.10
2022-09-12T20:43:31.750Z,2.45
2022-09-12T20:45:59.137Z,2.30
2022-09-12T20:48:30.443Z,3.40
2022-09-12T20:51:00.387Z,2.25
2022-09-12T20:53:32.847Z,2.60
2022-09-12T20:56:02.254Z,2.35
2022-09-12T20:58:29.830Z,2.17
2022-09-12T21:00:57.277Z,2.30
2022-09-12T21:03:28.060Z,2.30
2022-09-12T21:05:55.497Z,2.10
2022-09-12T21:08:22.966Z,2.60
2022-09-12T21:10:58.040Z,2.35
2022-09-12T21:13:28.167Z,2.40
2022-09-12T21:15:59.440Z,2.35
2022-09-12T21:18:28.396Z,2.20
2022-09-12T21:20:55.888Z,2.25
2022-09-12T21:23:29.669Z,2.20
2022-09-12T21:25:56.548Z,2.85
2022-09-12T21:28:24.045Z,2.40
2022-09-12T21:30:51.399Z,2.13
2022-09-12T21:33:19.483Z,2.47
2022-09-12T21:35:47.391Z,2.70
2022-09-12T21:38:16.390Z,2.13
2022-09-12T21:40:44.204Z,2.25
2022-09-12T21:43:13.124Z,2.67
2022-09-12T21:45:40.699Z,2.53
2022-09-12T21:48:08.118Z,2.60
2022-09-12T21:50:35.390Z,2.50
2022-09-12T21:53:02.426Z,2.28
2022-09-12T21:55:29.811Z,2.20
2022-09-12T21:57:56.724Z,2.60
2022-09-12T22:00:24.144Z,2.35
2022-09-12T22:02:51.244Z,1.95
2022-09-12T22:05:24.784Z,2.50
2022-09-12T22:07:52.592Z,2.65
2022-09-12T22:10:19.487Z,2.35
2022-09-12T22:12:46.624Z,2.03
2022-09-12T22:15:39.993Z,2.13
2022-09-12T22:18:03.405Z,2.15
2022-09-12T22:20:29.921Z,2.30
2022-09-12T22:23:19.207Z,2.00
2022-09-12T22:25:47.815Z,2.22
2022-09-12T22:28:14.325Z,2.85
2022-09-12T22:30:42.001Z,1.92
2022-09-12T22:33:08.543Z,2.58
2022-09-12T22:35:35.141Z,2.15
2022-09-12T22:38:01.799Z,2.28
2022-09-12T22:40:28.413Z,1.95
2022-09-12T22:42:55.016Z,2.35
2022-09-12T22:45:21.633Z,2.13
2022-09-12T22:47:48.249Z,2.30
2022-09-12T22:50:14.836Z,1.92
2022-09-12T22:52:41.696Z,2.75
2022-09-12T22:55:08.741Z,2.33
2022-09-12T22:57:35.426Z,2.50
2022-09-12T23:00:14.032Z,2.40
2022-09-12T23:02:40.835Z,2.20
2022-09-12T23:05:07.534Z,2.88
2022-09-12T23:07:34.136Z,2.20
2022-09-12T23:10:00.651Z,2.45
2022-09-12T23:12:33.624Z,2.55
2022-09-12T23:15:00.212Z,2.50
2022-09-12T23:17:26.859Z,2.25
2022-09-12T23:19:53.395Z,2.50
2022-09-12T23:22:19.984Z,2.40
2022-09-12T23:24:46.941Z,3.00
2022-09-12T23:27:13.482Z,2.80
2022-09-12T23:29:40.037Z,2.63
2022-09-12T23:32:06.820Z,2.13
2022-09-12T23:34:33.574Z,2.53
2022-09-12T23:37:00.339Z,2.78
2022-09-12T23:39:26.932Z,2.15
2022-09-12T23:41:53.691Z,2.42
2022-09-12T23:44:20.266Z,2.60
2022-09-12T23:46:46.789Z,2.70
2022-09-12T23:49:13.318Z,2.33
2022-09-12T23:51:39.983Z,2.03
2022-09-12T23:54:06.668Z,2.30
2022-09-12T23:56:33.176Z,2.83
2022-09-12T23:58:59.786Z,2.78
